Time;durP1;ratioP1;P1;durP2;ratioP2;P2;SDS_P1;SDS_P2;PMS_P1;PMS_P2;Temp;Humidity;BMP_temperature;BMP_pressure;BME280_temperature;BME280_humidity;BME280_pressure;Samples;Min_cycle;Max_cycle;Signal;HPM_P1;HPM_P2
2022/09/19 00:00:43;;;;;;;6.80;2.73;;;;;;;;;;5113445;28;20185;-73
2022/09/19 00:03:09;;;;;;;17.87;2.73;;;;;;;;;;5113451;28;20286;-73
2022/09/19 00:05:40;;;;;;;5.60;2.33;;;;;;;-142.65;97.23;50176.75;5113434;28;20585;-73
2022/09/19 00:08:08;;;;;;;5.90;1.90;;;;;;;-142.65;97.21;50170.78;5113866;28;20204;-73
2022/09/19 00:10:38;;;;;;;7.80;2.50;;;;;;;;;;5113626;28;20185;-73
2022/09/19 00:13:06;;;;;;;7.33;2.57;;;;;;;-142.65;96.86;50170.78;5113567;28;20181;-74
2022/09/19 00:15:45;;;;;;;3.77;2.07;;;;;;;-142.65;96.91;50174.75;5113883;28;20189;-74
2022/09/19 00:18:12;;;;;;;6.47;2.90;;;;;;;-142.65;96.92;50168.78;5113361;28;20209;-73
2022/09/19 00:20:40;;;;;;;4.97;2.47;;;;;;;-142.65;96.80;50180.75;5113559;28;20195;-73
2022/09/19 00:26:17;;;;;;;6.43;2.40;;;;;;;-142.65;96.56;50170.78;5113843;28;20177;-74
2022/09/19 00:28:45;;;;;;;7.77;2.53;;;;;;;-142.65;96.56;50170.78;5093496;28;20221;-74
2022/09/19 00:31:18;;;;;;;9.20;2.30;;;;;;;-142.65;96.27;50168.78;5095232;28;20189;-74
2022/09/19 00:33:46;;;;;;;3.77;2.70;;;;;;;;;;5094926;28;20230;-74
2022/09/19 00:36:13;;;;;;;4.63;2.50;;;;;;;;;;5094925;28;20246;-74
2022/09/19 00:38:40;;;;;;;4.37;2.77;;;;;;;-142.65;96.58;50178.75;5112972;28;20212;-73
2022/09/19 00:41:07;;;;;;;10.07;3.23;;;;;;;-142.65;96.43;50170.78;5113070;28;20187;-74
2022/09/19 00:43:45;;;;;;;13.50;2.97;;;;;;;-142.65;96.47;50170.78;5113325;28;20192;-74
2022/09/19 00:46:12;;;;;;;6.43;2.10;;;;;;;-142.65;96.51;50168.78;5098945;28;20510;-74
2022/09/19 00:48:41;;;;;;;5.90;2.70;;;;;;;-142.65;96.50;50170.78;5098303;28;20205;-74
2022/09/19 00:51:16;;;;;;;4.20;2.50;;;;;;;-142.65;96.49;50170.78;5116913;28;20202;-73
2022/09/19 00:53:44;;;;;;;7.90;2.50;;;;;;;;;;5098394;28;20189;-74
2022/09/19 00:56:10;;;;;;;10.90;2.47;;;;;;;-142.65;96.27;50168.78;5117235;28;20184;-74
2022/09/19 00:58:43;;;;;;;4.97;2.10;;;;;;;-142.65;96.27;50170.78;5097992;28;20312;-73
2022/09/19 01:01:13;;;;;;;10.67;2.60;;;;;;;-142.65;96.47;50170.78;5116421;28;20180;-74
2022/09/19 01:03:41;;;;;;;9.90;2.83;;;;;;;-142.65;96.46;50174.75;5098616;28;20647;-74
2022/09/19 01:06:43;;;;;;;3.13;2.23;;;;;;;;;;5116887;28;20184;-73
2022/09/19 01:09:27;;;;;;;12.87;2.30;;;;;;;-142.65;96.40;50172.78;5073508;28;20220;-73
2022/09/19 01:12:07;;;;;;;2.67;2.50;;;;;;;-142.65;96.51;50172.78;5112633;28;20220;-74
2022/09/19 01:15:12;;;;;;;7.90;2.23;;;;;;;-142.65;96.50;50168.78;5116709;28;20177;-74
2022/09/19 01:17:48;;;;;;;2.93;2.70;;;;;;;-142.65;96.42;50168.78;5073778;28;20198;-73
2022/09/19 01:20:33;;;;;;;4.67;2.47;;;;;;;-142.65;96.26;50164.81;5092844;28;20311;-74
2022/09/19 01:23:15;;;;;;;7.37;2.73;;;;;;;-142.65;96.45;50170.78;5097760;28;20181;-74
2022/09/19 01:25:46;;;;;;;7.47;2.83;;;;;;;;;;5097737;28;20220;-74
2022/09/19 01:28:20;;;;;;;8.27;2.93;;;;;;;-142.65;96.61;50170.78;5115876;28;20206;-73
2022/09/19 01:31:17;;;;;;;6.30;2.57;;;;;;;-142.65;96.59;50170.78;5097622;28;20643;-74
2022/09/19 01:34:07;;;;;;;14.63;6.97;;;;;;;-142.65;96.54;50172.78;5097514;28;20647;-74
2022/09/19 01:36:41;;;;;;;9.80;2.93;;;;;;;;;;5097425;28;20189;-74
2022/09/19 01:39:08;;;;;;;4.93;2.83;;;;;;;;;;5097347;28;20213;-73
2022/09/19 01:41:53;;;;;;;8.77;2.40;;;;;;;-142.65;96.40;50168.78;5097711;28;20220;-73
2022/09/19 01:44:24;;;;;;;9.00;3.33;;;;;;;;;;5097351;28;20185;-73
2022/09/19 01:47:17;;;;;;;6.07;2.47;;;;;;;-142.65;96.52;50170.78;5097528;28;20189;-73
2022/09/19 01:50:04;;;;;;;9.43;3.53;;;;;;;;;;5097186;28;20209;-73
2022/09/19 01:53:07;;;;;;;7.53;3.13;;;;;;;-142.65;96.42;50170.78;5097158;28;20283;-73
2022/09/19 01:56:01;;;;;;;13.23;2.87;;;;;;;-142.65;96.46;50170.78;5097068;28;20215;-73
2022/09/19 01:58:40;;;;;;;6.50;2.90;;;;;;;-142.65;96.80;50162.81;5097166;28;20304;-73
2022/09/19 02:01:28;;;;;;;6.60;2.47;;;;;;;-142.65;96.49;50174.75;5097003;28;20194;-73
2022/09/19 02:04:01;;;;;;;5.50;2.27;;;;;;;;;;5097538;28;20197;-73
2022/09/19 02:06:46;;;;;;;5.00;2.60;;;;;;;-142.65;96.38;50170.78;5097145;28;20193;-73
2022/09/19 02:09:26;;;;;;;11.50;3.27;;;;;;;-142.65;96.62;50168.78;5097642;28;20205;-73
2022/09/19 02:11:58;;;;;;;8.03;2.33;;;;;;;-142.65;96.68;50168.78;5097103;28;20287;-73
2022/09/19 02:14:30;;;;;;;13.17;3.03;;;;;;;-142.65;96.48;50168.78;5096740;28;20356;-73
2022/09/19 02:17:07;;;;;;;9.40;3.33;;;;;;;-142.65;96.86;50168.78;5096960;28;20712;-73
2022/09/19 02:19:53;;;;;;;2.63;2.40;;;;;;;;;;5097404;28;20262;-73
2022/09/19 02:22:28;;;;;;;8.73;2.80;;;;;;;-142.65;96.63;50182.72;5096585;28;20227;-74
2022/09/19 02:24:58;;;;;;;5.50;2.80;;;;;;;;;;5096581;28;20189;-74
2022/09/19 02:27:35;;;;;;;3.50;1.93;;;;;;;-142.65;96.67;50170.78;5114984;28;20185;-74
2022/09/19 02:30:08;;;;;;;4.50;2.70;;;;;;;-142.65;96.80;50170.78;5097037;28;20543;-74
2022/09/19 02:32:46;;;;;;;8.90;2.83;;;;;;;-142.65;96.77;50172.78;5096995;28;20621;-74
2022/09/19 02:35:15;;;;;;;8.20;2.07;;;;;;;;;;5096351;28;20188;-74
2022/09/19 02:37:54;;;;;;;7.10;2.17;;;;;;;-142.65;97.19;50168.78;5114471;28;20204;-73
2022/09/19 02:40:25;;;;;;;7.37;3.30;;;;;;;;;;5096501;28;20236;-74
2022/09/19 02:42:58;;;;;;;3.77;2.37;;;;;;;-142.65;96.89;50178.75;5096289;28;20197;-74
2022/09/19 02:45:32;;;;;;;3.67;1.93;;;;;;;-142.65;96.90;50168.78;5096416;28;20287;-74
2022/09/19 02:48:07;;;;;;;8.27;2.13;;;;;;;;;;5113242;28;20208;-74
2022/09/19 02:50:58;;;;;;;19.33;2.90;;;;;;;;;;5096132;28;20250;-74
2022/09/19 02:53:33;;;;;;;3.70;2.40;;;;;;;-142.65;97.21;50118.97;5089714;28;20589;-74
2022/09/19 02:56:02;;;;;;;7.40;2.73;;;;;;;-142.65;97.08;50174.75;5096786;28;20579;-74
2022/09/19 02:58:46;;;;;;;4.90;2.67;;;;;;;-142.65;96.83;50176.75;5095739;28;20222;-74
2022/09/19 03:01:20;;;;;;;3.20;2.10;;;;;;;-142.65;96.82;50162.81;5095895;28;20189;-74
2022/09/19 03:06:52;;;;;;;5.47;3.13;;;;;;;-142.65;97.23;50176.75;5112162;28;20219;-74
2022/09/19 03:09:25;;;;;;;3.57;2.40;;;;;;;-142.65;97.04;50174.75;5113970;28;20559;-73
2022/09/19 03:12:27;;;;;;;4.50;2.10;;;;;;;-142.65;97.00;50168.78;5096113;28;20201;-73
2022/09/19 03:14:58;;;;;;;8.67;2.37;;;;;;;-142.65;97.04;50176.75;5088641;28;20193;-73
2022/09/19 03:17:32;;;;;;;7.17;2.53;;;;;;;-142.65;97.21;50168.78;5095687;28;20278;-74
2022/09/19 03:20:00;;;;;;;7.23;2.63;;;;;;;-142.65;97.11;50172.78;5095843;28;20205;-74
2022/09/19 03:22:39;;;;;;;5.10;2.53;;;;;;;-142.65;97.17;50174.75;5096200;28;20189;-74
2022/09/19 03:25:10;;;;;;;4.97;2.73;;;;;;;-142.65;97.29;50174.75;5096387;28;20185;-74
2022/09/19 03:27:37;;;;;;;4.60;2.47;;;;;;;-142.65;97.18;50174.75;5095503;28;20193;-73
2022/09/19 03:30:08;;;;;;;9.83;2.50;;;;;;;;;;5113763;28;20177;-73
2022/09/19 03:32:41;;;;;;;9.37;2.73;;;;;;;-142.65;97.39;50170.78;5095821;28;20283;-73
2022/09/19 03:35:10;;;;;;;5.43;2.50;;;;;;;;;;5096438;28;20185;-73
2022/09/19 03:37:37;;;;;;;7.60;2.77;;;;;;;-142.65;97.16;50164.81;5095632;28;20266;-73
2022/09/19 03:40:04;;;;;;;4.97;2.70;;;;;;;-142.65;96.97;50168.78;5095385;28;20740;-74
2022/09/19 03:42:35;;;;;;;2.10;2.00;;;;;;;-142.65;97.08;50164.81;5095391;28;20551;-74
2022/09/19 03:45:04;;;;;;;5.70;2.30;;;;;;;-142.65;96.83;50170.78;5095397;28;20655;-74
2022/09/19 03:47:32;;;;;;;2.43;1.90;;;;;;;-142.65;96.78;50170.78;5095551;28;20203;-73
2022/09/19 03:49:58;;;;;;;11.03;2.93;;;;;;;-142.65;96.65;50172.78;5113567;28;20553;-74
2022/09/19 03:52:30;;;;;;;5.60;2.50;;;;;;;-142.65;96.70;50164.81;5095663;28;20242;-74
2022/09/19 03:54:57;;;;;;;14.00;2.93;;;;;;;;;;5095302;28;20593;-74
2022/09/19 03:57:25;;;;;;;4.73;2.47;;;;;;;-142.65;96.54;50168.78;5095265;28;20185;-74
2022/09/19 03:59:52;;;;;;;6.77;2.57;;;;;;;-142.65;96.64;50174.75;5095048;28;20303;-73
2022/09/19 04:02:18;;;;;;;6.07;2.20;;;;;;;;;;5095438;28;20189;-73
2022/09/19 04:04:46;;;;;;;8.83;2.90;;;;;;;;;;5095146;28;20283;-73
2022/09/19 04:07:13;;;;;;;9.80;3.60;;;;;;;-142.65;96.86;50168.78;5095123;28;20283;-73
2022/09/19 04:09:39;;;;;;;6.87;4.17;;;;;;;-142.65;96.76;50168.78;5095078;28;20267;-73
2022/09/19 04:12:06;;;;;;;3.47;2.53;;;;;;;;;;5095123;28;20227;-73
2022/09/19 04:14:35;;;;;;;11.83;3.57;;;;;;;-142.65;96.87;50170.78;5095083;28;20238;-73
2022/09/19 04:17:03;;;;;;;5.07;2.33;;;;;;;;;;5095104;28;20196;-73
2022/09/19 04:19:52;;;;;;;7.20;2.73;;;;;;;;;;5098828;28;20213;-74
2022/09/19 04:22:21;;;;;;;8.60;2.87;;;;;;;;;;5117469;28;20644;-74
2022/09/19 04:25:13;;;;;;;7.87;2.47;;;;;;;-142.65;96.65;50172.78;5098883;28;20184;-74
2022/09/19 04:28:02;;;;;;;12.23;2.47;;;;;;;-142.65;96.70;50176.75;5098797;28;20224;-73
2022/09/19 04:30:28;;;;;;;13.80;2.53;;;;;;;;;;5117612;28;20173;-73
2022/09/19 04:32:58;;;;;;;8.77;2.73;;;;;;;-142.65;96.60;50174.75;5099764;28;20189;-73
2022/09/19 04:35:25;;;;;;;6.77;2.37;;;;;;;-142.65;96.29;50174.75;5099224;28;20185;-73
2022/09/19 04:37:52;;;;;;;2.70;1.97;;;;;;;;;;5098781;28;20216;-73
2022/09/19 04:40:19;;;;;;;28.77;2.70;;;;;;;-142.65;96.26;50168.78;5098524;28;20205;-74
2022/09/19 04:42:46;;;;;;;4.83;2.33;;;;;;;-142.65;96.27;50168.78;5098406;28;20189;-74
2022/09/19 04:45:20;;;;;;;9.93;2.33;;;;;;;-142.65;96.13;50176.75;5098706;28;20242;-74
2022/09/19 04:48:09;;;;;;;5.07;1.80;;;;;;;-142.65;96.11;50174.75;5098414;28;20347;-73
2022/09/19 04:50:36;;;;;;;10.30;2.30;;;;;;;-142.65;96.06;50162.81;5098360;28;20309;-73
2022/09/19 04:53:03;;;;;;;4.27;2.70;;;;;;;-142.65;95.92;50170.78;5098354;28;20190;-73
2022/09/19 04:55:29;;;;;;;8.13;3.27;;;;;;;;;;5098537;28;20200;-73
2022/09/19 04:58:04;;;;;;;3.43;2.20;;;;;;;-142.65;95.94;50170.78;5099044;28;20235;-73
2022/09/19 05:00:38;;;;;;;9.37;2.73;;;;;;;-142.65;95.92;50170.78;5098140;28;20201;-73
2022/09/19 05:03:11;;;;;;;3.30;2.23;;;;;;;-142.65;96.01;50174.75;5098375;28;20545;-74
2022/09/19 05:05:50;;;;;;;13.73;2.50;;;;;;;-142.65;95.75;50178.75;5117185;28;20162;-74
2022/09/19 05:08:25;;;;;;;6.27;2.17;;;;;;;;;;5097982;28;20224;-74
2022/09/19 05:10:56;;;;;;;5.47;1.80;;;;;;;-142.65;95.76;50182.72;5098467;28;20181;-74
2022/09/19 05:13:23;;;;;;;4.63;2.53;;;;;;;;;;5116826;28;20529;-74
2022/09/19 05:15:51;;;;;;;7.47;2.20;;;;;;;-142.65;95.79;50168.78;5098486;28;20185;-74
2022/09/19 05:18:21;;;;;;;9.13;3.00;;;;;;;-142.65;95.87;50176.75;5116003;28;20698;-73
2022/09/19 05:20:52;;;;;;;8.37;3.10;;;;;;;-142.65;96.08;50164.81;5098230;28;20209;-73
2022/09/19 05:23:20;;;;;;;11.03;3.00;;;;;;;;;;5114915;28;20189;-73
2022/09/19 05:25:46;;;;;;;2.60;2.40;;;;;;;-142.65;95.94;50172.78;5097652;28;20586;-74
2022/09/19 05:28:12;;;;;;;4.93;2.97;;;;;;;;;;5115879;28;20228;-73
2022/09/19 05:30:44;;;;;;;3.90;2.93;;;;;;;;;;5096886;28;20232;-74
2022/09/19 05:33:11;;;;;;;6.17;2.73;;;;;;;-142.65;96.05;50170.78;5097464;28;20284;-74
2022/09/19 05:35:43;;;;;;;3.13;2.63;;;;;;;-142.65;96.11;50176.75;5097858;28;20281;-74
2022/09/19 05:38:46;;;;;;;6.03;3.17;;;;;;;-142.65;96.03;50178.75;5073136;28;20315;-73
2022/09/19 05:41:35;;;;;;;8.97;2.70;;;;;;;-142.65;96.06;50170.78;5095788;28;20196;-73
2022/09/19 05:44:10;;;;;;;5.93;2.17;;;;;;;-142.65;95.52;50178.75;5097332;28;20698;-74
2022/09/19 05:46:36;;;;;;;7.00;2.30;;;;;;;-142.65;95.53;50174.75;5115779;28;20188;-74
2022/09/19 05:49:02;;;;;;;9.07;2.50;;;;;;;-142.65;95.49;50170.78;5097074;28;20686;-73
2022/09/19 05:51:29;;;;;;;4.27;3.03;;;;;;;;;;5097303;28;20196;-73
2022/09/19 05:53:57;;;;;;;6.73;2.93;;;;;;;-142.65;95.39;50178.75;5097157;28;20656;-73
2022/09/19 05:56:45;;;;;;;11.30;2.87;;;;;;;-142.65;95.77;50170.78;5114985;28;20193;-73
2022/09/19 05:59:11;;;;;;;6.10;2.83;;;;;;;-142.65;95.89;50164.81;5115160;28;20204;-73
2022/09/19 06:01:40;;;;;;;4.07;2.27;;;;;;;-142.65;96.24;50162.81;5096966;28;20226;-73
2022/09/19 06:04:14;;;;;;;4.03;2.87;;;;;;;;;;5097465;28;20185;-73
2022/09/19 06:06:40;;;;;;;8.33;3.10;;;;;;;-142.65;96.33;50172.78;5097144;28;20619;-73
2022/09/19 06:09:08;;;;;;;5.00;2.60;;;;;;;-142.65;96.45;50168.78;5096748;28;20304;-73
2022/09/19 06:11:38;;;;;;;3.17;2.73;;;;;;;-142.65;96.32;50170.78;5096893;28;20189;-73
2022/09/19 06:14:14;;;;;;;9.30;3.13;;;;;;;-142.65;96.61;50170.78;5096680;28;20230;-73
2022/09/19 06:16:42;;;;;;;10.47;3.43;;;;;;;-142.65;96.72;50170.78;5096886;28;20189;-73
2022/09/19 06:19:14;;;;;;;5.90;2.90;;;;;;;;;;5115324;28;20209;-73
2022/09/19 06:21:42;;;;;;;17.63;4.00;;;;;;;-142.65;96.70;50170.78;5097127;28;20213;-74
2022/09/19 06:24:08;;;;;;;8.43;3.07;;;;;;;-142.65;96.69;50168.78;5097037;28;20203;-74
2022/09/19 06:26:36;;;;;;;11.70;3.60;;;;;;;-142.65;96.45;50180.75;5096880;28;20663;-74
2022/09/19 06:29:03;;;;;;;3.80;3.10;;;;;;;-142.65;96.42;50168.78;5096819;28;20252;-74
2022/09/19 06:31:29;;;;;;;9.57;3.53;;;;;;;;;;5097112;28;20656;-74
2022/09/19 06:34:07;;;;;;;8.40;3.23;;;;;;;-142.65;96.54;50176.75;5116333;28;20169;-74
2022/09/19 06:36:37;;;;;;;8.87;3.33;;;;;;;-142.65;96.59;50174.75;5097314;28;20191;-74
2022/09/19 06:39:06;;;;;;;3.47;3.17;;;;;;;-142.65;96.73;50164.81;5097239;28;20213;-74
2022/09/19 06:41:38;;;;;;;3.40;3.00;;;;;;;-142.65;96.35;50170.78;5096925;28;20216;-74
2022/09/19 06:44:14;;;;;;;13.17;3.37;;;;;;;-142.65;96.09;50164.81;5097438;28;20192;-74
2022/09/19 06:47:16;;;;;;;9.13;2.97;;;;;;;-142.65;95.85;50172.78;5072829;28;20227;-74
2022/09/19 06:49:48;;;;;;;8.40;2.50;;;;;;;-142.65;95.68;50164.81;5090598;28;20205;-74
2022/09/19 06:52:45;;;;;;;10.97;3.60;;;;;;;;;;5101614;28;20273;-74
2022/09/19 06:55:12;;;;;;;6.27;2.37;;;;;;;-142.65;95.13;50162.81;5097119;28;20245;-74
2022/09/19 06:57:42;;;;;;;5.13;2.33;;;;;;;;;;5096392;28;20193;-73
2022/09/19 07:00:09;;;;;;;6.40;2.57;;;;;;;-142.65;95.05;50118.97;5096152;28;20205;-73
2022/09/19 07:02:36;;;;;;;7.27;2.77;;;;;;;;;;5096176;28;20189;-73
2022/09/19 07:05:03;;;;;;;6.37;3.27;;;;;;;-142.65;95.16;50170.78;5095966;28;20189;-73
2022/09/19 07:07:42;;;;;;;6.10;2.77;;;;;;;;;;5096423;28;20539;-73
2022/09/19 07:10:09;;;;;;;6.53;2.70;;;;;;;-142.65;94.53;50172.78;5095895;28;20280;-73
2022/09/19 07:12:35;;;;;;;8.57;3.53;;;;;;;-142.65;94.43;50168.78;5095703;28;20291;-73
2022/09/19 07:15:04;;;;;;;9.73;3.23;;;;;;;-142.65;94.38;50170.78;5096158;28;20237;-74
2022/09/19 07:17:31;;;;;;;5.43;3.07;;;;;;;;;;5095957;28;20727;-73
2022/09/19 07:19:59;;;;;;;5.83;2.60;;;;;;;-142.65;94.23;50162.81;5095632;28;20300;-74
2022/09/19 07:22:25;;;;;;;10.13;3.53;;;;;;;-142.65;94.30;50162.81;5114058;28;20189;-74
2022/09/19 07:25:16;;;;;;;7.03;2.90;;;;;;;;;;5096268;28;20189;-74
2022/09/19 07:28:04;;;;;;;11.23;3.90;;;;;;;-142.65;93.96;50170.78;5096571;28;20281;-74
2022/09/19 07:30:34;;;;;;;8.13;2.90;;;;;;;;;;5095836;28;20182;-74
2022/09/19 07:33:03;;;;;;;3.83;2.80;;;;;;;-142.65;94.18;50162.81;5095478;28;20658;-74
2022/09/19 07:35:33;;;;;;;10.90;3.70;;;;;;;;;;5096231;28;20181;-74
2022/09/19 07:38:02;;;;;;;7.63;2.63;;;;;;;;;;5114171;28;20201;-74
2022/09/19 07:40:39;;;;;;;4.57;3.27;;;;;;;;;;5095993;28;20229;-74
2022/09/19 07:43:18;;;;;;;3.77;2.73;;;;;;;-142.65;93.81;50164.81;5095627;28;20276;-74
2022/09/19 07:46:14;;;;;;;2.80;2.47;;;;;;;-142.65;93.86;50162.81;5113554;28;20288;-74
2022/09/19 07:48:47;;;;;;;9.23;2.43;;;;;;;-142.65;92.20;50164.81;5095677;28;20307;-74
2022/09/19 07:51:40;;;;;;;4.57;2.17;;;;;;;-142.65;91.79;50162.81;5093818;28;20304;-74
2022/09/19 07:54:07;;;;;;;4.10;2.17;;;;;;;;;;5116249;28;20181;-74
2022/09/19 07:56:33;;;;;;;6.63;2.23;;;;;;;-142.65;91.71;50168.78;5099448;28;20196;-74
2022/09/19 07:59:01;;;;;;;8.57;2.10;;;;;;;-142.65;91.67;50162.81;5099531;28;20217;-74
2022/09/19 08:01:39;;;;;;;2.43;1.90;;;;;;;;;;5100085;28;20200;-74
2022/09/19 08:04:10;;;;;;;4.70;2.77;;;;;;;-142.65;90.79;50168.78;5100144;28;20219;-74
2022/09/19 08:06:51;;;;;;;4.90;1.90;;;;;;;-142.65;89.51;50162.81;5101934;28;20189;-75
2022/09/19 08:09:19;;;;;;;3.40;2.23;;;;;;;-142.65;90.49;50162.81;5102726;28;20234;-74
2022/09/19 08:12:12;;;;;;;7.83;2.23;;;;;;;;;;5102418;28;20201;-74
2022/09/19 08:14:58;;;;;;;11.10;3.13;;;;;;;-142.65;89.92;50162.81;5120279;28;20199;-75
2022/09/19 08:17:26;;;;;;;7.50;2.27;;;;;;;-142.65;89.61;50164.81;5104235;28;20192;-74
2022/09/19 08:19:56;;;;;;;4.60;2.80;;;;;;;-142.65;89.66;50162.81;5099736;28;20208;-74
2022/09/19 08:22:23;;;;;;;4.87;1.90;;;;;;;-142.65;89.31;50162.81;5099018;28;20283;-74
2022/09/19 08:24:55;;;;;;;2.80;2.00;;;;;;;-142.65;89.27;50164.81;5098906;28;20272;-74
2022/09/19 08:27:23;;;;;;;11.00;1.63;;;;;;;-142.65;88.85;50164.81;5098830;28;20221;-74
2022/09/19 08:29:49;;;;;;;6.73;2.10;;;;;;;-142.65;88.92;50170.78;5116995;28;20201;-74
2022/09/19 08:32:16;;;;;;;5.40;1.80;;;;;;;;;;5101733;28;20197;-75
2022/09/19 08:34:42;;;;;;;6.50;3.17;;;;;;;-142.65;88.75;50170.78;5102982;28;20284;-75
2022/09/19 08:37:10;;;;;;;3.50;1.80;;;;;;;-142.65;87.50;50118.97;5101476;28;20220;-75
2022/09/19 08:40:15;;;;;;;5.10;1.80;;;;;;;-142.65;86.86;50168.78;5102547;28;20217;-75
2022/09/19 08:42:41;;;;;;;5.17;2.53;;;;;;;-142.65;86.73;50168.78;5119978;28;20287;-74
2022/09/19 08:45:23;;;;;;;3.23;2.10;;;;;;;-142.65;85.79;50162.81;5103491;28;20181;-74
2022/09/19 08:47:50;;;;;;;4.70;1.97;;;;;;;-142.65;85.57;50118.97;5102484;28;20244;-74
2022/09/19 08:50:25;;;;;;;2.07;2.00;;;;;;;-142.65;86.59;50162.81;5103849;28;20238;-74
2022/09/19 08:52:57;;;;;;;11.33;2.70;;;;;;;-142.65;84.11;50170.78;5104279;28;20566;-75
2022/09/19 08:55:30;;;;;;;2.37;2.17;;;;;;;-142.65;84.87;50162.81;5103929;28;20195;-75
2022/09/19 08:58:01;;;;;;;4.57;2.10;;;;;;;-142.65;84.94;50164.81;5121895;28;20209;-74
2022/09/19 09:00:48;;;;;;;4.10;1.53;;;;;;;-142.65;83.28;50164.81;5105933;28;20205;-75
2022/09/19 09:03:16;;;;;;;4.63;1.83;;;;;;;;;;5105224;28;20288;-75
2022/09/19 09:06:08;;;;;;;5.20;2.77;;;;;;;;;;5099387;28;20199;-75
2022/09/19 09:09:03;;;;;;;5.30;1.87;;;;;;;-142.65;81.72;50162.81;5098430;28;20213;-74
2022/09/19 09:11:55;;;;;;;8.40;2.27;;;;;;;-142.65;83.22;50160.81;5098233;28;20189;-75
2022/09/19 09:14:47;;;;;;;6.87;1.80;;;;;;;;;;5097969;28;20280;-74
2022/09/19 09:17:41;;;;;;;7.23;2.47;;;;;;;-142.65;81.68;50164.81;5097980;28;20185;-73
2022/09/19 09:20:24;;;;;;;8.63;1.97;;;;;;;-142.65;82.70;50162.81;5098171;28;20189;-74
2022/09/19 09:23:16;;;;;;;4.33;2.63;;;;;;;-142.65;82.46;50162.81;5098158;28;20730;-74
2022/09/19 09:25:58;;;;;;;7.00;1.90;;;;;;;-142.65;83.43;50164.81;5098675;28;20177;-74
2022/09/19 09:28:46;;;;;;;9.57;2.43;;;;;;;-142.65;81.49;50162.81;5097743;28;20236;-74
2022/09/19 09:31:31;;;;;;;6.27;2.10;;;;;;;-142.65;80.19;50162.81;5097953;28;20189;-74
2022/09/19 09:34:25;;;;;;;2.10;1.47;;;;;;;;;;5115669;28;20191;-70
2022/09/19 09:37:12;;;;;;;3.73;2.17;;;;;;;-142.65;80.78;50101.06;5115034;28;20548;-73
2022/09/19 09:40:08;;;;;;;4.63;1.63;;;;;;;-142.65;79.73;50164.81;5097391;28;20266;-73
2022/09/19 09:42:43;;;;;;;2.07;1.83;;;;;;;;;;5097347;28;20666;-75
2022/09/19 09:45:35;;;;;;;5.00;1.77;;;;;;;-142.65;78.20;50164.81;5098241;28;20187;-75
2022/09/19 09:48:19;;;;;;;1.97;1.63;;;;;;;-142.65;79.13;50164.81;5097545;28;20305;-74
2022/09/19 09:51:18;;;;;;;6.33;2.03;;;;;;;-142.65;77.54;50168.78;5097364;28;20188;-74
2022/09/19 09:54:03;;;;;;;4.00;1.80;;;;;;;-142.65;77.73;50168.78;5097316;28;20730;-74
2022/09/19 09:56:38;;;;;;;1.83;1.73;;;;;;;-142.65;78.10;50170.78;5097213;28;20177;-75
2022/09/19 10:03:33;;;;;;;2.77;1.77;;;;;;;;;;5115629;28;20212;-74
2022/09/19 10:05:25;;;;;;;2.00;1.83;;;;;;;-142.65;77.29;50168.78;5096803;28;20184;-75
2022/09/19 10:08:10;;;;;;;3.00;2.00;;;;;;;-142.65;74.98;50164.81;5115561;28;20214;-74
2022/09/19 10:10:38;;;;;;;5.20;2.10;;;;;;;-142.65;75.20;50162.81;5114929;28;20162;-75
2022/09/19 10:13:32;;;;;;;3.17;1.93;;;;;;;-142.65;75.41;50162.81;5096688;28;20193;-74
2022/09/19 10:16:03;;;;;;;2.23;2.03;;;;;;;-142.65;75.71;50164.81;5114795;28;20193;-74
2022/09/19 10:18:46;;;;;;;1.90;1.80;;;;;;;-142.65;74.89;50164.81;5096711;28;20217;-75
2022/09/19 10:21:17;;;;;;;2.03;1.53;;;;;;;-142.65;74.31;50162.81;5097389;28;20274;-74
2022/09/19 10:23:48;;;;;;;4.97;2.60;;;;;;;-142.65;75.51;50162.81;5096841;28;20204;-73
2022/09/19 10:26:27;;;;;;;2.00;2.00;;;;;;;-142.65;74.26;50162.81;5097245;28;20181;-74
2022/09/19 10:29:02;;;;;;;19.60;2.67;;;;;;;-142.65;74.56;50101.06;5096494;28;20205;-74
2022/09/19 10:31:40;;;;;;;2.43;1.87;;;;;;;-142.65;76.10;50118.97;5115289;28;20169;-75
2022/09/19 10:34:33;;;;;;;4.70;1.90;;;;;;;-142.65;72.86;50164.81;5096773;28;20222;-75
2022/09/19 10:37:12;;;;;;;7.47;2.23;;;;;;;;;;5096983;28;20555;-74
2022/09/19 10:39:44;;;;;;;6.37;2.10;;;;;;;;;;5096341;28;20614;-74
2022/09/19 10:42:30;;;;;;;6.90;1.93;;;;;;;-142.65;74.65;50101.06;5096605;28;20209;-73
2022/09/19 10:45:00;;;;;;;3.47;1.93;;;;;;;;;;5096202;28;20181;-74
2022/09/19 10:47:28;;;;;;;2.80;2.23;;;;;;;-142.65;74.64;50118.97;5096133;28;20276;-75
2022/09/19 10:50:05;;;;;;;4.40;2.27;;;;;;;-142.65;73.98;50170.78;5097143;28;20259;-74
2022/09/19 10:52:50;;;;;;;6.87;1.90;;;;;;;-142.65;76.03;50162.81;5096408;28;20280;-74
2022/09/19 10:55:22;;;;;;;3.97;1.97;;;;;;;-142.65;74.85;50118.97;5096058;28;20179;-75
2022/09/19 10:58:03;;;;;;;2.13;1.93;;;;;;;-142.65;74.01;50168.78;5096221;28;20605;-74
2022/09/19 11:00:43;;;;;;;2.50;2.30;;;;;;;;;;5096655;28;20612;-74
2022/09/19 11:03:23;;;;;;;2.53;1.70;;;;;;;-142.65;73.55;50164.81;5095760;28;20177;-73
2022/09/19 11:06:03;;;;;;;4.90;1.67;;;;;;;-142.65;75.05;50162.81;5095891;28;20272;-74
2022/09/19 11:08:30;;;;;;;1.87;1.77;;;;;;;-142.65;72.30;50164.81;5096594;28;20209;-74
2022/09/19 11:10:59;;;;;;;3.67;2.17;;;;;;;;;;5095653;28;20242;-73
2022/09/19 11:13:31;;;;;;;1.50;1.40;;;;;;;-142.65;71.28;50172.78;5096551;28;20238;-73
2022/09/19 11:16:19;;;;;;;4.20;1.90;;;;;;;-142.65;70.23;50164.81;5095686;28;20221;-73
2022/09/19 11:18:57;;;;;;;5.63;2.00;;;;;;;-142.65;70.68;50168.78;5097061;28;20306;-73
2022/09/19 11:22:12;;;;;;;1.40;1.30;;;;;;;-142.65;70.46;50170.78;5095821;28;20643;-73
2022/09/19 11:25:01;;;;;;;2.53;2.00;;;;;;;-142.65;71.87;50162.81;5095557;28;20197;-73
2022/09/19 11:27:47;;;;;;;5.67;1.53;;;;;;;;;;5095098;28;20265;-73
2022/09/19 11:30:19;;;;;;;7.53;2.00;;;;;;;;;;5095488;28;20602;-74
2022/09/19 11:32:56;;;;;;;5.60;1.93;;;;;;;-142.65;67.90;50164.81;5095485;28;20173;-73
2022/09/19 11:36:08;;;;;;;2.83;1.77;;;;;;;-142.65;69.93;50174.75;5113533;28;20264;-74
2022/09/19 11:38:57;;;;;;;2.07;1.87;;;;;;;-142.65;69.79;50101.06;5096042;28;20213;-74
2022/09/19 11:42:04;;;;;;;6.40;1.73;;;;;;;-142.65;71.17;50164.81;5095371;28;20208;-73
2022/09/19 11:44:41;;;;;;;5.20;1.30;;;;;;;;;;5095401;28;20222;-73
2022/09/19 11:47:18;;;;;;;1.60;1.60;;;;;;;;;;5095682;28;20189;-74
2022/09/19 11:50:12;;;;;;;1.97;1.87;;;;;;;-142.65;71.27;50164.81;5095711;28;20204;-73
2022/09/19 11:53:09;;;;;;;4.13;1.93;;;;;;;-142.65;72.00;50162.81;5095202;28;20193;-74
2022/09/19 11:56:16;;;;;;;1.60;1.60;;;;;;;-142.65;72.39;50162.81;5071715;28;20219;-74
2022/09/19 11:59:13;;;;;;;1.63;1.37;;;;;;;-142.65;75.49;50168.78;5045257;28;20216;-74
2022/09/19 12:02:18;;;;;;;11.17;2.23;;;;;;;-142.65;74.97;50168.78;5065529;28;20213;-74
2022/09/19 12:04:56;;;;;;;3.07;1.60;;;;;;;-142.65;76.23;50170.78;5091567;28;20284;-72
2022/09/19 12:07:26;;;;;;;1.40;1.30;;;;;;;;;;5096050;28;20192;-71
2022/09/19 12:09:59;;;;;;;1.70;1.40;;;;;;;;;;5095363;28;20663;-71
2022/09/19 12:12:31;;;;;;;1.40;1.30;;;;;;;-142.65;69.92;50162.81;5113443;28;20605;-71
2022/09/19 12:15:25;;;;;;;1.10;1.10;;;;;;;;;;5113636;28;20223;-71
2022/09/19 12:18:01;;;;;;;1.50;1.50;;;;;;;-142.65;68.85;50168.78;5095281;28;20213;-70
2022/09/19 12:20:42;;;;;;;0.93;0.93;;;;;;;-142.65;69.04;50164.81;5095084;28;20546;-71
2022/09/19 12:26:23;;;;;;;1.47;1.47;;;;;;;-142.65;67.61;50164.81;5095793;28;20226;-70
2022/09/19 12:29:34;;;;;;;1.33;1.33;;;;;;;-142.65;68.77;50170.78;5095147;28;20309;-71
2022/09/19 12:32:14;;;;;;;1.70;1.70;;;;;;;-142.65;68.39;50164.81;5095250;28;20224;-70
2022/09/19 12:34:59;;;;;;;1.33;1.30;;;;;;;-142.65;68.91;50170.78;5094930;28;20185;-73
2022/09/19 12:37:38;;;;;;;1.33;1.33;;;;;;;-142.65;67.44;50164.81;5094803;28;20181;-70
2022/09/19 12:40:26;;;;;;;1.30;1.30;;;;;;;-142.65;68.36;50164.81;5098517;28;20189;-70
2022/09/19 12:42:54;;;;;;;4.73;1.40;;;;;;;;;;5098427;28;20678;-72
2022/09/19 12:45:30;;;;;;;3.60;1.43;;;;;;;-142.65;68.97;50164.81;5099508;28;20566;-72
2022/09/19 12:48:29;;;;;;;5.60;1.40;;;;;;;;;;5098358;28;20304;-72
2022/09/19 12:51:46;;;;;;;3.23;1.30;;;;;;;-142.65;69.53;50118.97;5084475;28;20231;-72
2022/09/19 12:54:25;;;;;;;1.23;1.23;;;;;;;-142.65;70.24;50160.81;5117192;28;20234;-72
2022/09/19 12:56:57;;;;;;;4.63;1.67;;;;;;;;;;5117122;28;20260;-72